sensor_id;sensor_type;location;lat;lon;timestamp;temperature;humidity
74617;DHT22;63123;50.906;4.198;2023-02-16T00:00:04;16.80;48.80
74617;DHT22;63123;50.906;4.198;2023-02-16T00:02:30;16.80;48.80
74617;DHT22;63123;50.906;4.198;2023-02-16T00:04:56;16.80;48.80
74617;DHT22;63123;50.906;4.198;2023-02-16T00:07:22;16.80;48.90
74617;DHT22;63123;50.906;4.198;2023-02-16T00:09:47;16.80;48.80
74617;DHT22;63123;50.906;4.198;2023-02-16T00:12:18;16.80;48.80
74617;DHT22;63123;50.906;4.198;2023-02-16T00:15:24;16.80;48.70
74617;DHT22;63123;50.906;4.198;2023-02-16T00:17:49;16.80;48.20
74617;DHT22;63123;50.906;4.198;2023-02-16T00:20:16;16.80;48.60
74617;DHT22;63123;50.906;4.198;2023-02-16T00:22:42;16.80;48.60
74617;DHT22;63123;50.906;4.198;2023-02-16T00:25:08;16.80;48.70
74617;DHT22;63123;50.906;4.198;2023-02-16T00:27:34;16.80;48.80
74617;DHT22;63123;50.906;4.198;2023-02-16T00:29:59;16.80;48.70
74617;DHT22;63123;50.906;4.198;2023-02-16T00:32:25;16.80;48.50
74617;DHT22;63123;50.906;4.198;2023-02-16T00:34:51;16.80;48.40
74617;DHT22;63123;50.906;4.198;2023-02-16T00:37:16;16.80;48.50
74617;DHT22;63123;50.906;4.198;2023-02-16T00:39:43;16.80;48.70
74617;DHT22;63123;50.906;4.198;2023-02-16T00:42:17;16.80;48.60
74617;DHT22;63123;50.906;4.198;2023-02-16T00:44:44;16.80;49.10
74617;DHT22;63123;50.906;4.198;2023-02-16T00:47:29;16.80;47.70
74617;DHT22;63123;50.906;4.198;2023-02-16T00:49:56;16.80;48.30
74617;DHT22;63123;50.906;4.198;2023-02-16T00:54:50;16.80;48.70
74617;DHT22;63123;50.906;4.198;2023-02-16T00:57:17;16.80;48.60
74617;DHT22;63123;50.906;4.198;2023-02-16T00:59:43;16.80;48.60
74617;DHT22;63123;50.906;4.198;2023-02-16T01:02:09;16.80;48.50
74617;DHT22;63123;50.906;4.198;2023-02-16T01:04:35;16.80;48.60
74617;DHT22;63123;50.906;4.198;2023-02-16T01:07:01;16.80;48.50
74617;DHT22;63123;50.906;4.198;2023-02-16T01:09:45;16.80;48.70
74617;DHT22;63123;50.906;4.198;2023-02-16T01:12:29;16.80;48.90
74617;DHT22;63123;50.906;4.198;2023-02-16T01:14:55;16.80;48.50
74617;DHT22;63123;50.906;4.198;2023-02-16T01:17:22;16.80;48.50
74617;DHT22;63123;50.906;4.198;2023-02-16T01:19:48;16.80;48.40
74617;DHT22;63123;50.906;4.198;2023-02-16T01:22:13;16.80;48.40
74617;DHT22;63123;50.906;4.198;2023-02-16T01:24:39;16.80;48.40
74617;DHT22;63123;50.906;4.198;2023-02-16T01:27:04;16.80;48.50
74617;DHT22;63123;50.906;4.198;2023-02-16T01:29:30;16.80;48.70
74617;DHT22;63123;50.906;4.198;2023-02-16T01:31:56;16.80;48.30
74617;DHT22;63123;50.906;4.198;2023-02-16T01:34:21;16.80;48.40
74617;DHT22;63123;50.906;4.198;2023-02-16T01:36:48;16.80;48.40
74617;DHT22;63123;50.906;4.198;2023-02-16T01:39:16;16.80;48.40
74617;DHT22;63123;50.906;4.198;2023-02-16T01:41:58;16.80;48.30
74617;DHT22;63123;50.906;4.198;2023-02-16T01:44:35;16.80;48.20
74617;DHT22;63123;50.906;4.198;2023-02-16T01:49:45;16.80;48.20
74617;DHT22;63123;50.906;4.198;2023-02-16T01:55:20;16.80;48.40
74617;DHT22;63123;50.906;4.198;2023-02-16T01:58:00;16.80;48.10
74617;DHT22;63123;50.906;4.198;2023-02-16T02:03:20;16.80;48.10
74617;DHT22;63123;50.906;4.198;2023-02-16T02:06:11;16.80;48.30
74617;DHT22;63123;50.906;4.198;2023-02-16T02:08:55;16.80;48.20
74617;DHT22;63123;50.906;4.198;2023-02-16T02:11:40;16.80;48.00
74617;DHT22;63123;50.906;4.198;2023-02-16T02:14:26;16.80;48.30
74617;DHT22;63123;50.906;4.198;2023-02-16T02:16:57;16.80;48.00
74617;DHT22;63123;50.906;4.198;2023-02-16T02:19:24;16.80;48.40
74617;DHT22;63123;50.906;4.198;2023-02-16T02:22:18;16.80;48.20
74617;DHT22;63123;50.906;4.198;2023-02-16T02:30:54;16.80;48.40
74617;DHT22;63123;50.906;4.198;2023-02-16T02:33:34;16.80;48.10
74617;DHT22;63123;50.906;4.198;2023-02-16T02:38:52;16.80;48.10
74617;DHT22;63123;50.906;4.198;2023-02-16T02:44:20;16.80;48.00
74617;DHT22;63123;50.906;4.198;2023-02-16T02:46:46;16.80;48.10
74617;DHT22;63123;50.906;4.198;2023-02-16T02:49:13;16.80;48.30
74617;DHT22;63123;50.906;4.198;2023-02-16T02:51:38;16.80;48.20
74617;DHT22;63123;50.906;4.198;2023-02-16T02:54:19;16.80;48.30
74617;DHT22;63123;50.906;4.198;2023-02-16T02:57:20;16.80;48.00
74617;DHT22;63123;50.906;4.198;2023-02-16T03:00:20;16.80;48.20
74617;DHT22;63123;50.906;4.198;2023-02-16T03:03:27;16.80;48.30
74617;DHT22;63123;50.906;4.198;2023-02-16T03:06:04;16.80;48.30
74617;DHT22;63123;50.906;4.198;2023-02-16T03:08:33;16.80;48.20
74617;DHT22;63123;50.906;4.198;2023-02-16T03:11:21;16.80;48.30
74617;DHT22;63123;50.906;4.198;2023-02-16T03:17:01;16.80;47.90
74617;DHT22;63123;50.906;4.198;2023-02-16T03:19:48;16.80;48.10
74617;DHT22;63123;50.906;4.198;2023-02-16T03:22:34;16.80;48.20
74617;DHT22;63123;50.906;4.198;2023-02-16T03:25:21;16.80;48.20
74617;DHT22;63123;50.906;4.198;2023-02-16T03:28:07;16.80;48.10
74617;DHT22;63123;50.906;4.198;2023-02-16T03:30:53;16.80;48.30
74617;DHT22;63123;50.906;4.198;2023-02-16T03:33:21;16.80;48.20
74617;DHT22;63123;50.906;4.198;2023-02-16T03:35:47;16.80;48.10
74617;DHT22;63123;50.906;4.198;2023-02-16T03:38:14;16.80;48.00
74617;DHT22;63123;50.906;4.198;2023-02-16T03:40:41;16.80;48.10
74617;DHT22;63123;50.906;4.198;2023-02-16T03:43:08;16.80;48.20
74617;DHT22;63123;50.906;4.198;2023-02-16T03:45:39;16.80;48.20
74617;DHT22;63123;50.906;4.198;2023-02-16T03:48:05;16.80;48.00
74617;DHT22;63123;50.906;4.198;2023-02-16T03:50:31;16.80;48.20
74617;DHT22;63123;50.906;4.198;2023-02-16T03:52:57;16.80;48.20
74617;DHT22;63123;50.906;4.198;2023-02-16T03:55:35;16.80;48.40
74617;DHT22;63123;50.906;4.198;2023-02-16T03:58:02;16.80;47.80
74617;DHT22;63123;50.906;4.198;2023-02-16T04:00:28;16.80;48.30
74617;DHT22;63123;50.906;4.198;2023-02-16T04:02:54;16.80;48.20
74617;DHT22;63123;50.906;4.198;2023-02-16T04:05:20;16.80;48.20
74617;DHT22;63123;50.906;4.198;2023-02-16T04:07:46;16.80;48.20
74617;DHT22;63123;50.906;4.198;2023-02-16T04:10:11;16.80;48.10
74617;DHT22;63123;50.906;4.198;2023-02-16T04:12:38;16.80;48.10
74617;DHT22;63123;50.906;4.198;2023-02-16T04:15:09;16.80;48.10
74617;DHT22;63123;50.906;4.198;2023-02-16T04:17:35;16.70;48.20
74617;DHT22;63123;50.906;4.198;2023-02-16T04:20:02;16.80;48.10
74617;DHT22;63123;50.906;4.198;2023-02-16T04:22:27;16.80;48.10
74617;DHT22;63123;50.906;4.198;2023-02-16T04:24:53;16.80;48.10
74617;DHT22;63123;50.906;4.198;2023-02-16T04:27:19;16.70;48.20
74617;DHT22;63123;50.906;4.198;2023-02-16T04:29:44;16.70;48.20
74617;DHT22;63123;50.906;4.198;2023-02-16T04:32:10;16.80;48.40
74617;DHT22;63123;50.906;4.198;2023-02-16T04:34:36;16.80;48.30
74617;DHT22;63123;50.906;4.198;2023-02-16T04:37:01;16.80;48.40
74617;DHT22;63123;50.906;4.198;2023-02-16T04:39:27;16.80;48.40
74617;DHT22;63123;50.906;4.198;2023-02-16T04:41:53;16.80;48.10
74617;DHT22;63123;50.906;4.198;2023-02-16T04:44:18;16.80;48.30
74617;DHT22;63123;50.906;4.198;2023-02-16T04:46:44;16.80;48.20
74617;DHT22;63123;50.906;4.198;2023-02-16T04:49:10;16.80;48.20
74617;DHT22;63123;50.906;4.198;2023-02-16T04:51:35;16.80;48.30
74617;DHT22;63123;50.906;4.198;2023-02-16T04:54:01;16.80;48.40
74617;DHT22;63123;50.906;4.198;2023-02-16T04:56:26;16.80;48.30
74617;DHT22;63123;50.906;4.198;2023-02-16T04:58:53;16.80;48.40
74617;DHT22;63123;50.906;4.198;2023-02-16T05:01:21;16.70;48.10
74617;DHT22;63123;50.906;4.198;2023-02-16T05:03:47;16.80;48.30
74617;DHT22;63123;50.906;4.198;2023-02-16T05:06:13;16.80;48.50
74617;DHT22;63123;50.906;4.198;2023-02-16T05:08:39;16.80;48.60
74617;DHT22;63123;50.906;4.198;2023-02-16T05:11:04;16.70;48.60
74617;DHT22;63123;50.906;4.198;2023-02-16T05:13:48;16.80;48.60
74617;DHT22;63123;50.906;4.198;2023-02-16T05:16:32;16.80;48.50
74617;DHT22;63123;50.906;4.198;2023-02-16T05:18:58;16.80;48.50
74617;DHT22;63123;50.906;4.198;2023-02-16T05:21:23;16.70;48.30
74617;DHT22;63123;50.906;4.198;2023-02-16T05:24:02;16.80;48.50
74617;DHT22;63123;50.906;4.198;2023-02-16T05:26:28;16.80;48.60
74617;DHT22;63123;50.906;4.198;2023-02-16T05:28:54;16.80;48.50
74617;DHT22;63123;50.906;4.198;2023-02-16T05:31:20;16.70;49.10
74617;DHT22;63123;50.906;4.198;2023-02-16T05:33:46;16.80;48.70
74617;DHT22;63123;50.906;4.198;2023-02-16T05:36:12;16.80;48.70
74617;DHT22;63123;50.906;4.198;2023-02-16T05:38:37;16.80;48.80
74617;DHT22;63123;50.906;4.198;2023-02-16T05:41:03;16.80;48.70
74617;DHT22;63123;50.906;4.198;2023-02-16T05:43:28;16.80;48.70
74617;DHT22;63123;50.906;4.198;2023-02-16T05:45:54;16.80;48.80
74617;DHT22;63123;50.906;4.198;2023-02-16T05:48:20;16.80;48.80
74617;DHT22;63123;50.906;4.198;2023-02-16T05:50:45;16.80;48.60
74617;DHT22;63123;50.906;4.198;2023-02-16T05:53:11;16.80;48.70
74617;DHT22;63123;50.906;4.198;2023-02-16T05:55:36;16.80;48.80
74617;DHT22;63123;50.906;4.198;2023-02-16T05:58:02;16.80;49.60
74617;DHT22;63123;50.906;4.198;2023-02-16T06:00:27;16.80;48.80
74617;DHT22;63123;50.906;4.198;2023-02-16T06:03:00;16.80;49.00
74617;DHT22;63123;50.906;4.198;2023-02-16T06:05:26;16.80;48.70
74617;DHT22;63123;50.906;4.198;2023-02-16T06:07:52;16.80;48.80
74617;DHT22;63123;50.906;4.198;2023-02-16T06:10:17;16.80;48.80
74617;DHT22;63123;50.906;4.198;2023-02-16T06:12:44;16.80;48.80
74617;DHT22;63123;50.906;4.198;2023-02-16T06:15:10;16.80;48.80
74617;DHT22;63123;50.906;4.198;2023-02-16T06:17:35;16.80;48.90
74617;DHT22;63123;50.906;4.198;2023-02-16T06:20:01;16.80;48.80
74617;DHT22;63123;50.906;4.198;2023-02-16T06:22:27;16.70;48.70
74617;DHT22;63123;50.906;4.198;2023-02-16T06:24:53;16.80;48.80
74617;DHT22;63123;50.906;4.198;2023-02-16T06:27:18;16.80;48.70
74617;DHT22;63123;50.906;4.198;2023-02-16T06:29:44;16.80;48.80
74617;DHT22;63123;50.906;4.198;2023-02-16T06:32:09;16.80;48.80
74617;DHT22;63123;50.906;4.198;2023-02-16T06:34:35;16.80;48.70
74617;DHT22;63123;50.906;4.198;2023-02-16T06:37:01;16.80;48.80
74617;DHT22;63123;50.906;4.198;2023-02-16T06:39:26;16.70;48.80
74617;DHT22;63123;50.906;4.198;2023-02-16T06:41:52;16.80;48.70
74617;DHT22;63123;50.906;4.198;2023-02-16T06:44:18;16.80;48.70
74617;DHT22;63123;50.906;4.198;2023-02-16T06:46:45;16.80;48.60
74617;DHT22;63123;50.906;4.198;2023-02-16T06:49:13;16.80;48.90
74617;DHT22;63123;50.906;4.198;2023-02-16T06:51:39;16.80;48.90
74617;DHT22;63123;50.906;4.198;2023-02-16T06:54:05;16.80;48.90
74617;DHT22;63123;50.906;4.198;2023-02-16T06:56:31;16.70;48.90
74617;DHT22;63123;50.906;4.198;2023-02-16T06:58:56;16.80;48.80
74617;DHT22;63123;50.906;4.198;2023-02-16T07:01:22;16.70;48.60
74617;DHT22;63123;50.906;4.198;2023-02-16T07:03:51;16.70;48.80
74617;DHT22;63123;50.906;4.198;2023-02-16T07:06:18;16.80;49.00
74617;DHT22;63123;50.906;4.198;2023-02-16T07:08:44;16.80;48.90
74617;DHT22;63123;50.906;4.198;2023-02-16T07:11:10;16.80;48.90
74617;DHT22;63123;50.906;4.198;2023-02-16T07:13:36;16.80;49.00
74617;DHT22;63123;50.906;4.198;2023-02-16T07:16:03;16.80;48.80
74617;DHT22;63123;50.906;4.198;2023-02-16T07:18:28;16.80;49.00
74617;DHT22;63123;50.906;4.198;2023-02-16T07:20:54;16.80;48.90
74617;DHT22;63123;50.906;4.198;2023-02-16T07:23:20;16.70;48.80
74617;DHT22;63123;50.906;4.198;2023-02-16T07:25:46;16.80;48.90
74617;DHT22;63123;50.906;4.198;2023-02-16T07:28:11;16.80;48.90
74617;DHT22;63123;50.906;4.198;2023-02-16T07:30:37;16.80;49.00
74617;DHT22;63123;50.906;4.198;2023-02-16T07:33:03;16.80;48.90
74617;DHT22;63123;50.906;4.198;2023-02-16T07:35:31;16.70;48.80
74617;DHT22;63123;50.906;4.198;2023-02-16T07:37:56;16.80;48.90
74617;DHT22;63123;50.906;4.198;2023-02-16T07:40:22;16.80;48.90
74617;DHT22;63123;50.906;4.198;2023-02-16T07:42:48;16.70;48.90
74617;DHT22;63123;50.906;4.198;2023-02-16T07:45:13;16.70;48.80
74617;DHT22;63123;50.906;4.198;2023-02-16T07:47:39;16.70;48.90
74617;DHT22;63123;50.906;4.198;2023-02-16T07:50:05;16.70;49.00
74617;DHT22;63123;50.906;4.198;2023-02-16T07:52:31;16.80;48.90
74617;DHT22;63123;50.906;4.198;2023-02-16T07:54:57;16.70;48.80
74617;DHT22;63123;50.906;4.198;2023-02-16T07:57:26;16.70;49.00
74617;DHT22;63123;50.906;4.198;2023-02-16T07:59:53;16.70;49.10
74617;DHT22;63123;50.906;4.198;2023-02-16T08:02:22;16.80;49.00
74617;DHT22;63123;50.906;4.198;2023-02-16T08:04:48;16.80;49.10
74617;DHT22;63123;50.906;4.198;2023-02-16T08:07:17;16.70;49.10
74617;DHT22;63123;50.906;4.198;2023-02-16T08:09:43;16.70;49.10
74617;DHT22;63123;50.906;4.198;2023-02-16T08:12:13;16.80;48.90
74617;DHT22;63123;50.906;4.198;2023-02-16T08:14:39;16.80;48.90
74617;DHT22;63123;50.906;4.198;2023-02-16T08:17:06;16.70;48.90
74617;DHT22;63123;50.906;4.198;2023-02-16T08:19:32;16.80;49.00
74617;DHT22;63123;50.906;4.198;2023-02-16T08:21:58;16.80;49.10
74617;DHT22;63123;50.906;4.198;2023-02-16T08:24:25;16.80;49.10
74617;DHT22;63123;50.906;4.198;2023-02-16T08:26:51;16.80;49.20
74617;DHT22;63123;50.906;4.198;2023-02-16T08:29:19;16.70;49.10
74617;DHT22;63123;50.906;4.198;2023-02-16T08:31:45;16.80;49.20
74617;DHT22;63123;50.906;4.198;2023-02-16T08:34:13;16.70;49.10
74617;DHT22;63123;50.906;4.198;2023-02-16T08:36:41;16.80;49.40
74617;DHT22;63123;50.906;4.198;2023-02-16T08:39:17;16.80;49.50
74617;DHT22;63123;50.906;4.198;2023-02-16T08:41:44;16.80;49.30
74617;DHT22;63123;50.906;4.198;2023-02-16T08:44:11;16.70;49.40
74617;DHT22;63123;50.906;4.198;2023-02-16T08:46:39;16.80;49.30
74617;DHT22;63123;50.906;4.198;2023-02-16T08:49:06;16.80;49.40
74617;DHT22;63123;50.906;4.198;2023-02-16T08:51:35;16.70;50.00
74617;DHT22;63123;50.906;4.198;2023-02-16T08:54:03;16.80;49.50
74617;DHT22;63123;50.906;4.198;2023-02-16T08:56:30;16.70;49.40
74617;DHT22;63123;50.906;4.198;2023-02-16T08:58:57;16.80;49.70
74617;DHT22;63123;50.906;4.198;2023-02-16T09:01:23;16.80;49.40
74617;DHT22;63123;50.906;4.198;2023-02-16T09:03:49;16.80;49.40
74617;DHT22;63123;50.906;4.198;2023-02-16T09:06:17;16.80;49.50
74617;DHT22;63123;50.906;4.198;2023-02-16T09:08:53;16.80;49.60
74617;DHT22;63123;50.906;4.198;2023-02-16T09:11:19;16.80;49.60
74617;DHT22;63123;50.906;4.198;2023-02-16T09:13:44;16.80;49.60
74617;DHT22;63123;50.906;4.198;2023-02-16T09:16:17;16.80;49.60
74617;DHT22;63123;50.906;4.198;2023-02-16T09:18:43;16.80;49.60
74617;DHT22;63123;50.906;4.198;2023-02-16T09:21:20;16.80;49.60
74617;DHT22;63123;50.906;4.198;2023-02-16T09:23:48;16.80;49.60
74617;DHT22;63123;50.906;4.198;2023-02-16T09:26:19;16.80;49.70
74617;DHT22;63123;50.906;4.198;2023-02-16T09:28:45;16.80;49.70
74617;DHT22;63123;50.906;4.198;2023-02-16T09:31:32;16.80;49.70
74617;DHT22;63123;50.906;4.198;2023-02-16T09:34:07;16.80;49.60
74617;DHT22;63123;50.906;4.198;2023-02-16T09:36:38;16.80;49.90
74617;DHT22;63123;50.906;4.198;2023-02-16T09:39:04;16.80;49.80
74617;DHT22;63123;50.906;4.198;2023-02-16T09:44:47;16.80;49.80
74617;DHT22;63123;50.906;4.198;2023-02-16T09:47:28;16.80;49.80
74617;DHT22;63123;50.906;4.198;2023-02-16T09:49:57;16.80;49.80
74617;DHT22;63123;50.906;4.198;2023-02-16T09:55:22;16.80;49.80
74617;DHT22;63123;50.906;4.198;2023-02-16T09:58:06;16.80;49.90
74617;DHT22;63123;50.906;4.198;2023-02-16T10:01:01;16.80;50.00
74617;DHT22;63123;50.906;4.198;2023-02-16T10:09:04;16.80;49.90
74617;DHT22;63123;50.906;4.198;2023-02-16T10:11:47;16.80;50.00
74617;DHT22;63123;50.906;4.198;2023-02-16T10:20:02;16.80;50.00
74617;DHT22;63123;50.906;4.198;2023-02-16T10:25:04;16.80;50.10
74617;DHT22;63123;50.906;4.198;2023-02-16T10:27:42;16.80;50.00
74617;DHT22;63123;50.906;4.198;2023-02-16T10:30:21;16.80;50.00
74617;DHT22;63123;50.906;4.198;2023-02-16T10:32:55;16.80;50.00
74617;DHT22;63123;50.906;4.198;2023-02-16T10:35:51;16.80;50.00
74617;DHT22;63123;50.906;4.198;2023-02-16T10:38:45;16.90;49.90
74617;DHT22;63123;50.906;4.198;2023-02-16T10:41:30;16.90;49.90
74617;DHT22;63123;50.906;4.198;2023-02-16T10:44:20;16.90;50.00
74617;DHT22;63123;50.906;4.198;2023-02-16T10:46:54;16.90;49.90
74617;DHT22;63123;50.906;4.198;2023-02-16T10:49:21;16.90;50.00
74617;DHT22;63123;50.906;4.198;2023-02-16T10:51:48;16.90;50.20
74617;DHT22;63123;50.906;4.198;2023-02-16T10:54:29;16.90;50.10
74617;DHT22;63123;50.906;4.198;2023-02-16T10:57:04;16.90;50.00
74617;DHT22;63123;50.906;4.198;2023-02-16T10:59:39;16.90;50.00
74617;DHT22;63123;50.906;4.198;2023-02-16T11:02:26;16.90;50.00
74617;DHT22;63123;50.906;4.198;2023-02-16T11:04:55;16.90;50.00
74617;DHT22;63123;50.906;4.198;2023-02-16T11:07:26;16.90;50.20
74617;DHT22;63123;50.906;4.198;2023-02-16T11:09:54;16.90;50.20
74617;DHT22;63123;50.906;4.198;2023-02-16T11:12:32;16.90;50.20
74617;DHT22;63123;50.906;4.198;2023-02-16T11:17:57;16.90;50.20
74617;DHT22;63123;50.906;4.198;2023-02-16T11:26:27;17.00;50.20
74617;DHT22;63123;50.906;4.198;2023-02-16T11:28:48;17.00;50.10
74617;DHT22;63123;50.906;4.198;2023-02-16T11:31:31;17.00;50.20
74617;DHT22;63123;50.906;4.198;2023-02-16T11:36:44;17.00;50.30
74617;DHT22;63123;50.906;4.198;2023-02-16T11:39:18;17.00;50.30
74617;DHT22;63123;50.906;4.198;2023-02-16T11:41:54;17.00;50.30
74617;DHT22;63123;50.906;4.198;2023-02-16T11:46:55;17.00;50.30
74617;DHT22;63123;50.906;4.198;2023-02-16T11:49:29;17.00;50.40
74617;DHT22;63123;50.906;4.198;2023-02-16T11:51:55;17.00;50.40
74617;DHT22;63123;50.906;4.198;2023-02-16T11:54:21;17.00;50.40
74617;DHT22;63123;50.906;4.198;2023-02-16T11:57:02;17.00;50.50
74617;DHT22;63123;50.906;4.198;2023-02-16T11:59:33;17.00;50.40
74617;DHT22;63123;50.906;4.198;2023-02-16T12:02:26;17.00;50.50
74617;DHT22;63123;50.906;4.198;2023-02-16T12:08:13;17.00;50.60
74617;DHT22;63123;50.906;4.198;2023-02-16T12:10:54;17.00;50.60
74617;DHT22;63123;50.906;4.198;2023-02-16T12:16:24;17.00;50.60
74617;DHT22;63123;50.906;4.198;2023-02-16T12:19:08;17.00;50.60
74617;DHT22;63123;50.906;4.198;2023-02-16T12:21:40;17.00;50.60
74617;DHT22;63123;50.906;4.198;2023-02-16T12:26:55;17.00;50.80
74617;DHT22;63123;50.906;4.198;2023-02-16T12:37:45;17.00;51.10
74617;DHT22;63123;50.906;4.198;2023-02-16T12:45:34;17.00;51.10
74617;DHT22;63123;50.906;4.198;2023-02-16T12:50:34;17.00;51.20
74617;DHT22;63123;50.906;4.198;2023-02-16T12:53:15;17.00;51.20
74617;DHT22;63123;50.906;4.198;2023-02-16T12:55:45;17.00;51.30
74617;DHT22;63123;50.906;4.198;2023-02-16T13:01:10;17.00;51.50
74617;DHT22;63123;50.906;4.198;2023-02-16T13:03:54;17.00;51.40
74617;DHT22;63123;50.906;4.198;2023-02-16T13:06:56;17.00;51.50
74617;DHT22;63123;50.906;4.198;2023-02-16T13:09:36;17.00;51.40
74617;DHT22;63123;50.906;4.198;2023-02-16T13:15:09;17.00;51.50
74617;DHT22;63123;50.906;4.198;2023-02-16T13:17:41;17.00;51.50
74617;DHT22;63123;50.906;4.198;2023-02-16T13:20:18;17.00;51.50
74617;DHT22;63123;50.906;4.198;2023-02-16T13:31:33;17.00;51.60
74617;DHT22;63123;50.906;4.198;2023-02-16T13:34:32;17.00;51.50
74617;DHT22;63123;50.906;4.198;2023-02-16T13:40:17;17.00;51.80
74617;DHT22;63123;50.906;4.198;2023-02-16T13:43:18;17.00;51.70
74617;DHT22;63123;50.906;4.198;2023-02-16T13:45:48;17.00;51.80
74617;DHT22;63123;50.906;4.198;2023-02-16T13:48:39;17.00;51.70
74617;DHT22;63123;50.906;4.198;2023-02-16T13:51:16;16.90;51.60
74617;DHT22;63123;50.906;4.198;2023-02-16T13:53:56;16.90;51.60
74617;DHT22;63123;50.906;4.198;2023-02-16T13:56:32;17.00;51.80
74617;DHT22;63123;50.906;4.198;2023-02-16T14:01:48;17.00;51.90
74617;DHT22;63123;50.906;4.198;2023-02-16T14:06:51;16.90;51.80
74617;DHT22;63123;50.906;4.198;2023-02-16T14:12:19;16.90;51.90
74617;DHT22;63123;50.906;4.198;2023-02-16T14:20:23;17.00;51.90
74617;DHT22;63123;50.906;4.198;2023-02-16T14:22:54;17.00;51.90
74617;DHT22;63123;50.906;4.198;2023-02-16T14:30:34;16.90;51.90
74617;DHT22;63123;50.906;4.198;2023-02-16T14:35:46;17.00;52.00
74617;DHT22;63123;50.906;4.198;2023-02-16T14:41:05;16.90;52.00
74617;DHT22;63123;50.906;4.198;2023-02-16T14:43:42;16.90;52.10
74617;DHT22;63123;50.906;4.198;2023-02-16T14:55:46;17.00;52.10
74617;DHT22;63123;50.906;4.198;2023-02-16T15:01:42;17.00;52.20
74617;DHT22;63123;50.906;4.198;2023-02-16T15:04:09;16.90;52.10
74617;DHT22;63123;50.906;4.198;2023-02-16T15:06:44;16.90;52.10
74617;DHT22;63123;50.906;4.198;2023-02-16T15:09:21;16.90;52.20
74617;DHT22;63123;50.906;4.198;2023-02-16T15:11:55;16.90;52.20
74617;DHT22;63123;50.906;4.198;2023-02-16T15:14:47;16.90;52.20
74617;DHT22;63123;50.906;4.198;2023-02-16T15:17:34;16.90;52.20
74617;DHT22;63123;50.906;4.198;2023-02-16T15:20:31;16.90;52.40
74617;DHT22;63123;50.906;4.198;2023-02-16T15:23:23;16.90;52.30
74617;DHT22;63123;50.906;4.198;2023-02-16T15:28:21;16.90;52.30
74617;DHT22;63123;50.906;4.198;2023-02-16T15:30:55;16.90;52.40
74617;DHT22;63123;50.906;4.198;2023-02-16T15:38:21;16.90;52.40
74617;DHT22;63123;50.906;4.198;2023-02-16T15:40:54;16.90;52.40
74617;DHT22;63123;50.906;4.198;2023-02-16T15:43:36;16.90;52.40
74617;DHT22;63123;50.906;4.198;2023-02-16T15:46:06;16.90;52.50
74617;DHT22;63123;50.906;4.198;2023-02-16T15:48:35;16.90;52.50
74617;DHT22;63123;50.906;4.198;2023-02-16T15:53:36;16.90;52.40
74617;DHT22;63123;50.906;4.198;2023-02-16T15:56:15;16.90;52.40
74617;DHT22;63123;50.906;4.198;2023-02-16T15:58:43;16.90;52.50
74617;DHT22;63123;50.906;4.198;2023-02-16T16:01:08;16.90;52.60
74617;DHT22;63123;50.906;4.198;2023-02-16T16:03:36;16.90;52.70
74617;DHT22;63123;50.906;4.198;2023-02-16T16:06:10;16.90;52.70
74617;DHT22;63123;50.906;4.198;2023-02-16T16:08:36;16.80;52.70
74617;DHT22;63123;50.906;4.198;2023-02-16T16:11:02;16.90;52.60
74617;DHT22;63123;50.906;4.198;2023-02-16T16:13:29;16.90;52.70
74617;DHT22;63123;50.906;4.198;2023-02-16T16:15:58;16.80;52.60
74617;DHT22;63123;50.906;4.198;2023-02-16T16:18:46;16.80;52.60
74617;DHT22;63123;50.906;4.198;2023-02-16T16:24:12;16.90;52.80
74617;DHT22;63123;50.906;4.198;2023-02-16T16:26:57;16.90;52.90
74617;DHT22;63123;50.906;4.198;2023-02-16T16:31:56;16.90;52.80
74617;DHT22;63123;50.906;4.198;2023-02-16T16:37:00;16.90;52.90
74617;DHT22;63123;50.906;4.198;2023-02-16T16:39:36;16.80;52.90
74617;DHT22;63123;50.906;4.198;2023-02-16T16:42:28;16.80;52.90
74617;DHT22;63123;50.906;4.198;2023-02-16T16:45:02;16.90;53.10
74617;DHT22;63123;50.906;4.198;2023-02-16T16:47:36;16.80;52.90
74617;DHT22;63123;50.906;4.198;2023-02-16T16:52:46;16.80;53.00
74617;DHT22;63123;50.906;4.198;2023-02-16T16:57:44;16.80;53.00
74617;DHT22;63123;50.906;4.198;2023-02-16T17:00:11;16.80;53.10
74617;DHT22;63123;50.906;4.198;2023-02-16T17:02:37;16.80;53.10
74617;DHT22;63123;50.906;4.198;2023-02-16T17:05:03;16.90;53.20
74617;DHT22;63123;50.906;4.198;2023-02-16T17:07:29;16.80;53.10
74617;DHT22;63123;50.906;4.198;2023-02-16T17:09:54;16.80;53.20
74617;DHT22;63123;50.906;4.198;2023-02-16T17:12:21;16.80;53.10
74617;DHT22;63123;50.906;4.198;2023-02-16T17:14:47;16.80;53.10
74617;DHT22;63123;50.906;4.198;2023-02-16T17:17:13;16.80;53.20
74617;DHT22;63123;50.906;4.198;2023-02-16T17:19:39;16.80;53.10
74617;DHT22;63123;50.906;4.198;2023-02-16T17:22:15;16.80;53.20
74617;DHT22;63123;50.906;4.198;2023-02-16T17:24:41;16.80;53.10
74617;DHT22;63123;50.906;4.198;2023-02-16T17:27:07;16.80;53.30
74617;DHT22;63123;50.906;4.198;2023-02-16T17:29:33;16.80;53.40
74617;DHT22;63123;50.906;4.198;2023-02-16T17:31:59;16.80;53.30
74617;DHT22;63123;50.906;4.198;2023-02-16T17:34:24;16.80;53.30
74617;DHT22;63123;50.906;4.198;2023-02-16T17:37:02;16.80;53.30
74617;DHT22;63123;50.906;4.198;2023-02-16T17:39:30;16.80;53.30
74617;DHT22;63123;50.906;4.198;2023-02-16T17:41:55;16.90;53.50
74617;DHT22;63123;50.906;4.198;2023-02-16T17:44:21;16.80;53.30
74617;DHT22;63123;50.906;4.198;2023-02-16T17:46:47;16.80;53.40
74617;DHT22;63123;50.906;4.198;2023-02-16T17:49:12;16.80;53.40
74617;DHT22;63123;50.906;4.198;2023-02-16T17:51:38;16.80;54.00
74617;DHT22;63123;50.906;4.198;2023-02-16T17:54:05;16.80;53.40
74617;DHT22;63123;50.906;4.198;2023-02-16T17:56:33;16.90;53.50
74617;DHT22;63123;50.906;4.198;2023-02-16T17:58:59;16.80;53.50
74617;DHT22;63123;50.906;4.198;2023-02-16T18:01:25;16.80;53.50
74617;DHT22;63123;50.906;4.198;2023-02-16T18:03:51;16.80;53.50
74617;DHT22;63123;50.906;4.198;2023-02-16T18:06:20;16.80;54.10
74617;DHT22;63123;50.906;4.198;2023-02-16T18:08:46;16.80;53.60
74617;DHT22;63123;50.906;4.198;2023-02-16T18:11:12;16.80;53.80
74617;DHT22;63123;50.906;4.198;2023-02-16T18:13:38;16.80;53.70
74617;DHT22;63123;50.906;4.198;2023-02-16T18:16:04;16.80;53.80
74617;DHT22;63123;50.906;4.198;2023-02-16T18:18:34;16.80;53.80
74617;DHT22;63123;50.906;4.198;2023-02-16T18:21:01;16.80;53.70
74617;DHT22;63123;50.906;4.198;2023-02-16T18:23:28;16.80;53.90
74617;DHT22;63123;50.906;4.198;2023-02-16T18:25:54;16.80;53.80
74617;DHT22;63123;50.906;4.198;2023-02-16T18:28:25;16.80;53.90
74617;DHT22;63123;50.906;4.198;2023-02-16T18:30:51;16.80;53.80
74617;DHT22;63123;50.906;4.198;2023-02-16T18:33:17;16.80;53.80
74617;DHT22;63123;50.906;4.198;2023-02-16T18:35:45;16.80;53.80